< < Back
Terminal Aerodrome Forecast


Current Version              Previous Versions:   1  2  3  4  5  6  7  8  9  

Terminal Aerodrome Forecast

933
FTUS44 KMOB 251139
TAFPNS
TAF
KPNS 251139Z 2512/2612 02005KT P6SM BKN250
     FM251500 13006KT P6SM BKN250
     FM251800 14011KT P6SM FEW040 BKN250=

Latest METAR

627
SAUS70 KWBC 260600 RRB
MTRPNS
METAR KPNS 260553Z AUTO 17006KT 10SM CLR 23/19 A3012 RMK AO2 SLP202
T02280194 10261 20228 403000183 58016


USA.gov is the U.S. government's official web portal to all federal, state and local government web resources and services.